createdAt,value
2022-08-25T00:01:00.320Z,25.82
2022-08-25T00:03:35.941Z,25.79
2022-08-25T00:06:17.665Z,25.80
2022-08-25T00:08:59.353Z,25.79
2022-08-25T00:11:31.724Z,25.65
2022-08-25T00:14:08.185Z,25.53
2022-08-25T00:16:43.607Z,25.46
2022-08-25T00:19:15.522Z,25.45
2022-08-25T00:21:51.577Z,25.39
2022-08-25T00:24:22.590Z,25.32
2022-08-25T00:27:02.111Z,25.32
2022-08-25T00:29:46.058Z,25.25
2022-08-25T00:32:18.290Z,25.14
2022-08-25T00:34:48.770Z,25.10
2022-08-25T00:37:19.473Z,25.06
2022-08-25T00:39:52.533Z,24.99
2022-08-25T00:42:22.261Z,24.98
2022-08-25T00:44:54.414Z,24.97
2022-08-25T00:47:24.445Z,24.91
2022-08-25T00:50:04.783Z,24.87
2022-08-25T00:52:43.884Z,24.86
2022-08-25T00:55:20.820Z,24.87
2022-08-25T00:57:57.242Z,24.88
2022-08-25T01:00:38.360Z,24.93
2022-08-25T01:03:13.907Z,24.94
2022-08-25T01:05:53.085Z,24.87
2022-08-25T01:08:30.659Z,24.82
2022-08-25T01:11:49.720Z,24.82
2022-08-25T01:16:25.730Z,24.86
2022-08-25T01:18:29.261Z,24.88
2022-08-25T01:21:00.071Z,24.97
2022-08-25T01:26:46.918Z,24.99
2022-08-25T01:26:55.531Z,24.95
2022-08-25T01:29:26.432Z,24.90
2022-08-25T01:31:59.451Z,24.97
2022-08-25T01:34:30.719Z,25.08
2022-08-25T01:37:00.979Z,25.17
2022-08-25T01:39:33.420Z,25.25
2022-08-25T01:42:18.773Z,25.32
2022-08-25T01:44:48.906Z,25.33
2022-08-25T01:47:20.841Z,25.26
2022-08-25T01:49:49.881Z,25.25
2022-08-25T01:52:27.750Z,25.24
2022-08-25T01:54:59.425Z,25.23
2022-08-25T01:57:31.248Z,25.26
2022-08-25T02:00:05.153Z,25.29
2022-08-25T02:02:34.857Z,25.34
2022-08-25T02:05:09.141Z,25.33
2022-08-25T02:07:40.747Z,25.32
2022-08-25T02:10:12.490Z,25.32
2022-08-25T02:12:41.609Z,25.31
2022-08-25T02:15:16.278Z,25.32
2022-08-25T02:18:09.076Z,25.33
2022-08-25T02:20:39.098Z,25.34
2022-08-25T02:23:09.664Z,25.33
2022-08-25T02:25:47.089Z,25.30
2022-08-25T02:28:16.969Z,25.29
2022-08-25T02:30:48.156Z,25.30
2022-08-25T02:33:20.594Z,25.31
2022-08-25T02:35:58.391Z,25.30
2022-08-25T02:38:34.258Z,25.30
2022-08-25T02:45:17.822Z,25.29
2022-08-25T02:47:50.331Z,25.30
2022-08-25T02:51:33.763Z,25.31
2022-08-25T02:54:11.687Z,25.29
2022-08-25T02:56:42.254Z,25.30
2022-08-25T02:59:15.006Z,25.33
2022-08-25T03:01:50.031Z,25.35
2022-08-25T03:04:24.949Z,25.36
2022-08-25T03:06:56.359Z,25.39
2022-08-25T03:09:27.050Z,25.41
2022-08-25T03:11:57.320Z,25.40
2022-08-25T03:14:27.848Z,25.37
2022-08-25T03:16:59.198Z,25.34
2022-08-25T03:19:29.610Z,25.31
2022-08-25T03:22:00.636Z,25.26
2022-08-25T03:24:31.780Z,25.25
2022-08-25T03:27:01.510Z,25.25
2022-08-25T03:29:33.036Z,25.24
2022-08-25T03:32:08.363Z,25.22
2022-08-25T03:34:39.240Z,25.15
2022-08-25T03:37:11.545Z,25.10
2022-08-25T03:39:43.610Z,25.09
2022-08-25T03:42:12.935Z,25.11
2022-08-25T03:44:43.403Z,25.11
2022-08-25T03:47:15.265Z,25.11
2022-08-25T03:49:46.634Z,25.12
2022-08-25T03:52:17.824Z,25.14
2022-08-25T03:54:48.296Z,25.17
2022-08-25T03:57:25.952Z,25.18
2022-08-25T04:00:01.004Z,25.21
2022-08-25T04:02:33.678Z,25.24
2022-08-25T04:05:05.108Z,25.25
2022-08-25T04:07:35.685Z,25.28
2022-08-25T04:18:43.855Z,25.34
2022-08-25T04:21:25.658Z,25.36
2022-08-25T04:35:10.154Z,25.41
2022-08-25T04:37:39.249Z,25.44
2022-08-25T04:40:10.967Z,25.46
2022-08-25T04:42:41.261Z,25.48
2022-08-25T04:45:11.012Z,25.35
2022-08-25T04:47:40.839Z,25.20
2022-08-25T04:50:10.649Z,25.15
2022-08-25T04:52:39.779Z,25.12
2022-08-25T04:55:09.778Z,25.08
2022-08-25T04:57:46.672Z,25.07
2022-08-25T05:00:18.267Z,25.07
2022-08-25T05:02:47.388Z,25.08
2022-08-25T05:05:17.198Z,25.02
2022-08-25T05:07:47.216Z,24.95
2022-08-25T05:10:16.503Z,24.95
2022-08-25T05:12:46.509Z,24.94
2022-08-25T05:15:33.645Z,24.95
2022-08-25T05:18:03.549Z,24.97
2022-08-25T05:20:36.314Z,24.98
2022-08-25T05:23:05.785Z,24.99
2022-08-25T05:25:37.155Z,25.02
2022-08-25T05:28:06.278Z,25.02
2022-08-25T05:30:37.160Z,25.02
2022-08-25T05:33:07.237Z,25.03
2022-08-25T05:35:36.752Z,25.06
2022-08-25T05:38:06.644Z,25.07
2022-08-25T05:40:35.999Z,25.07
2022-08-25T05:43:05.168Z,25.11
2022-08-25T05:45:34.283Z,25.14
2022-08-25T05:48:04.181Z,25.18
2022-08-25T05:50:33.811Z,25.21
2022-08-25T05:53:03.286Z,25.23
2022-08-25T05:55:32.441Z,25.26
2022-08-25T05:58:01.758Z,25.28
2022-08-25T06:00:31.343Z,25.31
2022-08-25T06:03:00.280Z,25.32
2022-08-25T06:05:29.238Z,25.35
2022-08-25T06:07:58.545Z,25.36
2022-08-25T06:10:27.756Z,25.39
2022-08-25T06:12:57.036Z,25.41
2022-08-25T06:15:27.730Z,25.44
2022-08-25T06:18:01.797Z,25.51
2022-08-25T06:20:32.449Z,25.60
2022-08-25T06:23:01.457Z,25.68
2022-08-25T06:25:33.073Z,25.77
2022-08-25T06:28:02.248Z,25.82
2022-08-25T06:30:31.437Z,25.87
2022-08-25T06:33:00.425Z,25.92
2022-08-25T06:35:29.592Z,25.99
2022-08-25T06:37:58.482Z,26.04
2022-08-25T06:40:29.061Z,26.10
2022-08-25T06:42:59.370Z,26.17
2022-08-25T06:45:28.236Z,26.24
2022-08-25T06:47:59.890Z,26.29
2022-08-25T06:50:29.064Z,26.34
2022-08-25T06:52:57.994Z,26.38
2022-08-25T06:55:27.132Z,26.42
2022-08-25T06:57:56.040Z,26.50
2022-08-25T07:00:30.669Z,26.55
2022-08-25T07:03:01.097Z,26.59
2022-08-25T07:05:42.908Z,26.62
2022-08-25T07:08:12.533Z,26.63
2022-08-25T07:10:41.769Z,26.67
2022-08-25T07:13:17.154Z,26.72
2022-08-25T07:15:46.180Z,26.76
2022-08-25T07:18:15.221Z,26.82
2022-08-25T07:20:44.185Z,26.86
2022-08-25T07:23:13.205Z,26.90
2022-08-25T07:25:42.224Z,26.95
2022-08-25T07:28:11.723Z,26.98
2022-08-25T07:30:41.380Z,27.02
2022-08-25T07:33:11.599Z,27.05
2022-08-25T07:35:43.691Z,27.08
2022-08-25T07:38:16.649Z,27.11
2022-08-25T07:40:54.442Z,27.15
2022-08-25T07:43:25.901Z,27.19
2022-08-25T07:45:55.491Z,27.25
2022-08-25T07:48:24.415Z,27.28
2022-08-25T07:50:53.279Z,27.32
2022-08-25T07:53:22.738Z,27.36
2022-08-25T07:55:51.936Z,27.39
2022-08-25T07:58:22.872Z,27.44
2022-08-25T08:00:52.729Z,27.49
2022-08-25T08:03:42.182Z,27.58
2022-08-25T08:06:13.987Z,27.65
2022-08-25T08:08:45.134Z,27.73
2022-08-25T08:11:17.869Z,27.80
2022-08-25T08:13:48.628Z,27.87
2022-08-25T08:16:22.321Z,27.92
2022-08-25T08:18:51.322Z,27.96
2022-08-25T08:21:23.055Z,28.01
2022-08-25T08:23:58.155Z,28.05
2022-08-25T08:26:48.198Z,28.08
2022-08-25T08:29:19.670Z,28.11
2022-08-25T08:31:51.896Z,28.14
2022-08-25T08:34:24.939Z,28.15
2022-08-25T08:36:54.433Z,28.15
2022-08-25T08:39:23.832Z,28.18
2022-08-25T08:42:18.184Z,28.18
2022-08-25T08:45:17.000Z,28.21
2022-08-25T08:47:52.801Z,28.27
2022-08-25T08:50:34.800Z,28.32
2022-08-25T08:53:13.560Z,28.38
2022-08-25T08:55:52.688Z,28.43
2022-08-25T08:58:26.298Z,28.50
2022-08-25T09:00:58.481Z,28.57
2022-08-25T09:03:36.895Z,28.61
2022-08-25T09:06:13.762Z,28.65
2022-08-25T09:08:44.794Z,28.72
2022-08-25T09:11:23.647Z,28.80
2022-08-25T09:14:16.211Z,28.87
2022-08-25T09:16:56.040Z,28.94
2022-08-25T09:20:06.305Z,29.00
2022-08-25T09:23:01.195Z,29.07
2022-08-25T09:25:53.355Z,29.11
2022-08-25T09:28:30.136Z,29.17
2022-08-25T09:31:02.605Z,29.24
2022-08-25T09:33:35.701Z,29.30
2022-08-25T09:36:08.885Z,29.33
2022-08-25T09:38:38.980Z,29.36
2022-08-25T09:41:35.005Z,29.40
2022-08-25T09:44:05.129Z,29.43
2022-08-25T09:46:35.358Z,29.50
2022-08-25T09:49:16.131Z,29.57
2022-08-25T09:51:45.147Z,29.63
2022-08-25T09:54:25.479Z,29.67
2022-08-25T09:57:05.002Z,29.70
2022-08-25T09:59:38.369Z,29.73
2022-08-25T10:02:23.613Z,29.78
2022-08-25T10:04:53.273Z,29.83
2022-08-25T10:07:27.086Z,29.88
2022-08-25T10:09:59.723Z,29.91
2022-08-25T10:12:37.063Z,29.94
2022-08-25T10:15:29.589Z,30.00
2022-08-25T10:18:21.955Z,30.08
2022-08-25T10:21:07.629Z,30.14
2022-08-25T10:23:40.860Z,30.18
2022-08-25T10:26:23.396Z,30.22
2022-08-25T10:29:06.001Z,30.26
2022-08-25T10:31:41.291Z,30.31
2022-08-25T10:34:22.069Z,30.36
2022-08-25T10:37:00.375Z,30.41
2022-08-25T10:39:40.886Z,30.44
2022-08-25T10:42:37.948Z,30.48
2022-08-25T10:45:51.034Z,30.50
2022-08-25T10:48:40.434Z,30.55
2022-08-25T10:51:27.214Z,30.61
2022-08-25T10:54:06.290Z,30.68
2022-08-25T10:56:41.141Z,30.73
2022-08-25T10:59:31.124Z,30.80
2022-08-25T11:13:30.674Z,31.28
2022-08-25T11:16:16.987Z,31.40
2022-08-25T11:18:54.236Z,31.43
2022-08-25T11:21:30.547Z,31.46
2022-08-25T11:24:11.086Z,31.48
2022-08-25T11:26:53.526Z,31.51
2022-08-25T11:29:36.535Z,31.54
2022-08-25T11:32:07.460Z,31.58
2022-08-25T11:34:42.439Z,31.65
2022-08-25T11:37:22.987Z,31.70
2022-08-25T11:40:20.455Z,31.70
2022-08-25T11:43:00.853Z,31.71
2022-08-25T11:45:54.790Z,31.79
2022-08-25T11:48:35.482Z,31.84
2022-08-25T11:51:07.812Z,31.89
2022-08-25T11:53:42.176Z,31.95
2022-08-25T11:56:32.824Z,32.00
2022-08-25T11:59:04.911Z,32.07
2022-08-25T12:02:09.983Z,32.13
2022-08-25T12:04:45.166Z,32.20
2022-08-25T12:07:24.050Z,32.25
2022-08-25T12:10:14.465Z,32.31
2022-08-25T12:13:21.462Z,32.35
2022-08-25T12:16:00.148Z,32.43
2022-08-25T12:18:50.324Z,32.47
2022-08-25T12:21:35.500Z,32.50
2022-08-25T12:24:22.555Z,32.56
2022-08-25T12:26:58.313Z,32.60
2022-08-25T12:29:35.461Z,32.67
2022-08-25T12:32:25.786Z,32.76
2022-08-25T12:35:18.930Z,32.82
2022-08-25T12:38:05.667Z,32.89
2022-08-25T12:40:39.886Z,33.00
2022-08-25T12:43:24.883Z,33.11
2022-08-25T12:46:15.867Z,33.21
2022-08-25T12:49:10.046Z,33.37
2022-08-25T12:52:09.359Z,33.56
2022-08-25T12:55:02.627Z,33.69
2022-08-25T12:57:45.141Z,33.74
2022-08-25T13:06:35.491Z,34.12
2022-08-25T13:09:43.865Z,34.20
2022-08-25T13:12:20.351Z,34.26
2022-08-25T13:14:54.859Z,34.39
2022-08-25T13:17:29.817Z,34.59
2022-08-25T13:20:24.724Z,34.93
2022-08-25T13:23:00.942Z,35.21
2022-08-25T13:25:33.109Z,35.38
2022-08-25T13:28:06.400Z,35.60
2022-08-25T13:30:40.917Z,35.65
2022-08-25T13:33:22.414Z,35.78
2022-08-25T13:36:16.170Z,35.91
2022-08-25T13:38:48.266Z,36.08
2022-08-25T13:41:29.166Z,36.16
2022-08-25T13:44:01.864Z,36.10
2022-08-25T13:46:35.449Z,36.07
2022-08-25T13:49:08.878Z,36.23
2022-08-25T13:51:51.058Z,36.27
2022-08-25T13:54:30.222Z,36.41
2022-08-25T13:57:11.928Z,36.52
2022-08-25T13:59:46.512Z,36.41
2022-08-25T14:02:44.025Z,36.30
2022-08-25T14:05:16.941Z,36.38
2022-08-25T14:08:03.814Z,36.44
2022-08-25T14:10:46.206Z,36.44
2022-08-25T14:13:31.363Z,36.35
2022-08-25T14:16:12.294Z,36.31
2022-08-25T14:18:49.422Z,36.31
2022-08-25T14:21:22.857Z,36.29
2022-08-25T14:23:54.433Z,36.36
2022-08-25T14:26:26.723Z,36.24
2022-08-25T14:28:57.054Z,36.20
2022-08-25T14:31:30.764Z,36.13
2022-08-25T14:34:05.795Z,36.01
2022-08-25T14:36:59.558Z,36.06
2022-08-25T14:39:37.162Z,36.19
2022-08-25T14:42:08.467Z,36.23
2022-08-25T14:44:38.880Z,36.20
2022-08-25T14:47:10.173Z,36.06
2022-08-25T14:49:45.493Z,35.89
2022-08-25T14:52:22.659Z,35.77
2022-08-25T14:54:56.888Z,35.68
2022-08-25T14:57:38.107Z,35.46
2022-08-25T15:00:20.802Z,35.36
2022-08-25T15:03:08.069Z,35.32
2022-08-25T15:05:40.164Z,35.24
2022-08-25T15:08:34.606Z,35.21
2022-08-25T15:11:09.070Z,35.16
2022-08-25T15:13:49.171Z,34.99
2022-08-25T15:16:35.199Z,34.74
2022-08-25T15:19:07.331Z,34.58
2022-08-25T15:21:39.396Z,34.46
2022-08-25T15:24:22.071Z,34.43
2022-08-25T15:27:01.042Z,34.45
2022-08-25T15:29:50.204Z,34.53
2022-08-25T15:32:20.630Z,34.54
2022-08-25T15:34:51.064Z,34.47
2022-08-25T15:37:20.858Z,34.40
2022-08-25T15:39:50.504Z,34.36
2022-08-25T15:42:21.963Z,34.31
2022-08-25T15:44:53.442Z,34.32
2022-08-25T15:47:24.108Z,34.26
2022-08-25T15:50:04.681Z,34.14
2022-08-25T15:52:46.490Z,34.09
2022-08-25T15:55:19.887Z,34.07
2022-08-25T15:57:49.996Z,33.97
2022-08-25T16:00:21.454Z,33.90
2022-08-25T16:02:51.909Z,33.83
2022-08-25T16:05:25.769Z,33.79
2022-08-25T16:07:56.031Z,33.73
2022-08-25T16:10:30.430Z,33.68
2022-08-25T16:13:04.676Z,33.64
2022-08-25T16:15:35.985Z,33.58
2022-08-25T16:18:11.916Z,33.54
2022-08-25T16:20:45.746Z,33.43
2022-08-25T16:23:25.454Z,33.29
2022-08-25T16:25:54.973Z,33.19
2022-08-25T16:28:25.804Z,33.08
2022-08-25T16:30:56.592Z,32.96
2022-08-25T16:33:33.414Z,32.84
2022-08-25T16:36:12.507Z,32.70
2022-08-25T16:38:43.667Z,32.55
2022-08-25T16:41:34.081Z,32.44
2022-08-25T16:44:07.468Z,32.38
2022-08-25T16:46:42.662Z,32.28
2022-08-25T16:49:16.277Z,32.17
2022-08-25T16:51:46.117Z,32.07
2022-08-25T16:54:36.797Z,31.97
2022-08-25T16:57:06.928Z,31.85
2022-08-25T16:59:43.851Z,31.72
2022-08-25T17:02:16.583Z,31.61
2022-08-25T17:04:48.819Z,31.50
2022-08-25T17:07:23.859Z,31.41
2022-08-25T17:10:12.837Z,31.33
2022-08-25T17:12:49.430Z,31.23
2022-08-25T17:15:25.354Z,31.15
2022-08-25T17:17:57.294Z,31.09
2022-08-25T17:20:26.659Z,31.00
2022-08-25T17:22:57.950Z,30.90
2022-08-25T17:25:41.214Z,30.81
2022-08-25T17:28:14.176Z,30.73
2022-08-25T17:30:44.348Z,30.67
2022-08-25T17:33:15.186Z,30.60
2022-08-25T17:35:49.100Z,30.53
2022-08-25T17:38:20.736Z,30.46
2022-08-25T17:41:16.927Z,30.41
2022-08-25T17:43:47.954Z,30.34
2022-08-25T17:46:18.687Z,30.29
2022-08-25T17:48:48.251Z,30.24
2022-08-25T17:51:18.173Z,30.20
2022-08-25T17:53:48.730Z,30.15
2022-08-25T17:56:20.017Z,30.11
2022-08-25T17:58:50.192Z,30.06
2022-08-25T18:01:22.422Z,30.02
2022-08-25T18:03:52.234Z,29.97
2022-08-25T18:10:55.494Z,29.86
2022-08-25T18:13:26.679Z,29.80
2022-08-25T18:20:09.579Z,29.70
2022-08-25T18:25:03.830Z,29.65
2022-08-25T18:27:27.907Z,29.60
2022-08-25T18:30:38.258Z,29.55
2022-08-25T18:34:10.548Z,29.48
2022-08-25T18:52:48.106Z,29.04
2022-08-25T18:55:42.644Z,28.95
2022-08-25T18:59:42.371Z,28.89
2022-08-25T19:03:13.202Z,28.79
2022-08-25T19:06:32.193Z,28.70
2022-08-25T19:09:16.515Z,28.63
2022-08-25T19:11:50.021Z,28.58
2022-08-25T19:14:44.068Z,28.51
2022-08-25T19:17:20.984Z,28.44
2022-08-25T19:24:39.758Z,28.27
2022-08-25T19:24:59.562Z,28.39
2022-08-25T19:32:55.481Z,28.08
2022-08-25T19:35:38.873Z,28.03
2022-08-25T19:42:47.916Z,27.94
2022-08-25T19:45:00.769Z,28.01
2022-08-25T19:46:14.604Z,27.91
2022-08-25T19:53:15.846Z,27.84
2022-08-25T19:55:47.228Z,27.79
2022-08-25T20:09:41.001Z,27.57
2022-08-25T20:12:35.051Z,27.53
2022-08-25T20:15:09.711Z,27.48
2022-08-25T20:18:24.554Z,27.44
2022-08-25T20:21:13.080Z,27.38
2022-08-25T20:24:11.361Z,27.36
2022-08-25T20:26:43.067Z,27.31
2022-08-25T20:29:33.077Z,27.28
2022-08-25T20:32:55.798Z,27.25
2022-08-25T20:35:47.987Z,27.24
2022-08-25T20:38:24.832Z,27.22
2022-08-25T20:41:48.466Z,27.20
2022-08-25T20:44:24.206Z,27.19
2022-08-25T20:50:32.682Z,27.17
2022-08-25T20:53:10.254Z,27.18
2022-08-25T20:55:55.354Z,27.17
2022-08-25T20:58:48.988Z,27.16
2022-08-25T21:01:40.080Z,27.17
2022-08-25T21:07:42.482Z,27.16
2022-08-25T21:10:14.540Z,27.16
2022-08-25T21:12:44.742Z,27.16
2022-08-25T21:15:17.908Z,27.17
2022-08-25T21:17:52.623Z,27.15
2022-08-25T21:20:25.240Z,27.13
2022-08-25T21:22:54.864Z,27.09
2022-08-25T21:29:03.832Z,27.08
2022-08-25T21:31:34.733Z,27.06
2022-08-25T21:34:07.096Z,27.06
2022-08-25T21:36:37.833Z,27.05
2022-08-25T21:39:12.022Z,27.05
2022-08-25T21:41:43.770Z,27.04
2022-08-25T21:44:14.747Z,27.04
2022-08-25T21:46:54.199Z,27.06
2022-08-25T21:49:26.327Z,27.05
2022-08-25T21:52:00.510Z,27.02
2022-08-25T21:54:32.517Z,27.01
2022-08-25T21:57:05.099Z,26.99
2022-08-25T21:59:40.650Z,26.99
2022-08-25T22:02:13.552Z,27.00
2022-08-25T22:04:47.131Z,26.99
2022-08-25T22:07:19.489Z,26.99
2022-08-25T22:09:57.225Z,26.99
2022-08-25T22:12:28.963Z,26.98
2022-08-25T22:15:00.647Z,26.99
2022-08-25T22:17:31.992Z,26.96
2022-08-25T22:20:02.011Z,26.93
2022-08-25T22:22:31.447Z,26.89
2022-08-25T22:25:01.208Z,26.84
2022-08-25T22:27:32.783Z,26.82
2022-08-25T22:30:06.153Z,26.82
2022-08-25T22:32:40.174Z,26.78
2022-08-25T22:35:12.763Z,26.77
2022-08-25T22:37:45.140Z,26.78
2022-08-25T22:40:15.798Z,26.76
2022-08-25T22:42:50.291Z,26.70
2022-08-25T22:45:21.396Z,26.63
2022-08-25T22:47:51.969Z,26.63
2022-08-25T22:50:22.903Z,26.64
2022-08-25T22:52:52.898Z,26.62
2022-08-25T22:55:24.478Z,26.61
2022-08-25T22:57:59.207Z,26.58
2022-08-25T23:00:31.579Z,26.58
2022-08-25T23:03:02.790Z,26.53
2022-08-25T23:05:40.621Z,26.52
2022-08-25T23:08:11.808Z,26.52
2022-08-25T23:10:47.736Z,26.52
2022-08-25T23:13:34.177Z,26.54
2022-08-25T23:16:06.203Z,26.56
2022-08-25T23:18:43.070Z,26.57
2022-08-25T23:21:38.231Z,26.55
2022-08-25T23:24:13.532Z,26.52
2022-08-25T23:26:51.174Z,26.48
2022-08-25T23:29:24.391Z,26.47
2022-08-25T23:31:55.039Z,26.48
2022-08-25T23:34:26.367Z,26.46
2022-08-25T23:36:55.894Z,26.43
2022-08-25T23:39:25.144Z,26.31
2022-08-25T23:41:54.155Z,26.22
2022-08-25T23:44:24.779Z,26.15
2022-08-25T23:46:59.384Z,26.05
2022-08-25T23:49:32.689Z,25.90
2022-08-25T23:52:04.003Z,25.80
2022-08-25T23:54:33.624Z,25.73
2022-08-25T23:57:02.955Z,25.75
2022-08-25T23:59:36.415Z,25.76
